Time;durP1;ratioP1;P1;durP2;ratioP2;P2;SDS_P1;SDS_P2;PMS_P1;PMS_P2;Temp;Humidity;BMP_temperature;BMP_pressure;BME280_temperature;BME280_humidity;BME280_pressure;Samples;Min_cycle;Max_cycle;Signal;HPM_P1;HPM_P2
2023/09/04 00:02:00;;;;;;;5.20;2.90;;;19.20;99.90;;;;;;5031841;28;20025;-38
2023/09/04 00:04:26;;;;;;;4.75;2.53;;;19.30;99.90;;;;;;5029045;28;20112;-39
2023/09/04 00:06:52;;;;;;;5.72;3.03;;;19.00;99.90;;;;;;5026060;28;20075;-39
2023/09/04 00:09:18;;;;;;;4.93;2.85;;;19.10;99.90;;;;;;5021079;28;20069;-39
2023/09/04 00:11:43;;;;;;;5.45;3.30;;;19.10;99.90;;;;;;5024443;28;20112;-40
2023/09/04 00:14:09;;;;;;;5.00;2.90;;;18.90;99.90;;;;;;5030048;28;20482;-37
2023/09/04 00:16:35;;;;;;;5.47;3.22;;;18.90;99.90;;;;;;5031137;28;20112;-37
2023/09/04 00:19:00;;;;;;;4.80;2.60;;;18.90;99.90;;;;;;5023384;28;20511;-37
2023/09/04 00:21:26;;;;;;;5.43;3.13;;;19.10;99.90;;;;;;5029333;28;20081;-36
2023/09/04 00:23:51;;;;;;;5.30;3.28;;;19.00;99.90;;;;;;5031498;28;20617;-36
2023/09/04 00:26:17;;;;;;;5.30;3.03;;;18.30;99.90;;;;;;5030426;28;20495;-37
2023/09/04 00:28:42;;;;;;;5.72;3.45;;;19.10;99.90;;;;;;5026597;28;20048;-39
2023/09/04 00:31:09;;;;;;;5.07;2.85;;;19.00;99.90;;;;;;5021439;28;20048;-36
2023/09/04 00:33:34;;;;;;;5.38;2.85;;;19.20;99.90;;;;;;5030219;28;20049;-35
2023/09/04 00:36:02;;;;;;;4.97;2.83;;;19.30;99.90;;;;;;5031090;28;20344;-38
2023/09/04 00:38:28;;;;;;;5.13;3.03;;;18.30;99.90;;;;;;5028446;28;20052;-38
2023/09/04 00:40:54;;;;;;;4.93;2.50;;;18.60;99.90;;;;;;5019628;28;20068;-36
2023/09/04 00:43:19;;;;;;;4.57;2.50;;;18.60;99.90;;;;;;5027129;28;20072;-37
2023/09/04 00:45:46;;;;;;;4.55;2.45;;;19.10;99.90;;;;;;5023646;28;20399;-37
2023/09/04 00:48:13;;;;;;;5.20;2.95;;;18.80;99.90;;;;;;5031028;28;20033;-36
2023/09/04 00:50:41;;;;;;;4.35;2.28;;;17.90;99.90;;;;;;5022560;28;20041;-36
2023/09/04 00:53:07;;;;;;;4.75;2.55;;;18.70;99.90;;;;;;5031003;28;20473;-36
2023/09/04 00:55:33;;;;;;;4.78;2.30;;;18.30;99.90;;;;;;5029635;28;20045;-37
2023/09/04 00:57:59;;;;;;;5.05;2.60;;;18.20;99.90;;;;;;5030878;28;20045;-35
2023/09/04 01:00:27;;;;;;;4.00;1.80;;;18.50;99.90;;;;;;5030428;28;20037;-37
2023/09/04 01:02:54;;;;;;;5.18;2.05;;;18.70;99.90;;;;;;5029121;28;20037;-37
2023/09/04 01:05:20;;;;;;;3.80;1.70;;;18.80;99.90;;;;;;5030409;28;20536;-37
2023/09/04 01:07:48;;;;;;;3.80;1.80;;;17.60;99.90;;;;;;5025298;28;20033;-37
2023/09/04 01:10:14;;;;;;;4.32;2.30;;;17.80;99.90;;;;;;5026894;28;20052;-39
2023/09/04 01:12:51;;;;;;;4.15;2.00;;;18.60;99.90;;;;;;5023395;28;20173;-36
2023/09/04 01:15:17;;;;;;;4.60;2.38;;;18.30;99.90;;;;;;5022055;28;20128;-37
2023/09/04 01:17:44;;;;;;;4.65;2.30;;;18.60;99.90;;;;;;5030060;28;20155;-36
2023/09/04 01:20:19;;;;;;;4.72;2.58;;;18.40;99.90;;;;;;5030358;28;20099;-40
2023/09/04 01:22:44;;;;;;;6.18;2.80;;;18.30;99.90;;;;;;5030245;28;20495;-38
2023/09/04 01:25:10;;;;;;;5.45;3.00;;;18.30;99.90;;;;;;5029851;28;20120;-38
2023/09/04 01:27:41;;;;;;;5.85;3.20;;;17.70;99.90;;;;;;5023511;28;20073;-36
2023/09/04 01:30:17;;;;;;;6.00;3.70;;;17.40;99.90;;;;;;5021938;28;20038;-37
2023/09/04 01:32:53;;;;;;;6.10;3.45;;;17.80;99.90;;;;;;5030045;28;20053;-39
2023/09/04 01:35:21;;;;;;;6.13;3.83;;;18.60;99.90;;;;;;5029914;28;20077;-39
2023/09/04 01:37:48;;;;;;;6.00;4.40;;;17.70;99.90;;;;;;5026320;28;20045;-36
2023/09/04 01:40:14;;;;;;;5.88;3.92;;;17.90;99.90;;;;;;5016952;28;20052;-39
2023/09/04 01:42:39;;;;;;;6.82;4.57;;;17.90;99.90;;;;;;5026608;28;20125;-36
2023/09/04 01:45:05;;;;;;;6.68;4.63;;;17.80;99.90;;;;;;5026310;28;20487;-39
2023/09/04 01:47:31;;;;;;;6.55;4.43;;;18.30;99.90;;;;;;5030148;28;20411;-38
2023/09/04 01:49:57;;;;;;;7.68;4.85;;;17.70;99.90;;;;;;5021655;28;20036;-41
2023/09/04 01:52:23;;;;;;;7.13;4.60;;;18.50;99.90;;;;;;5011529;28;20113;-38
2023/09/04 01:54:48;;;;;;;7.05;4.65;;;18.30;99.90;;;;;;5022547;28;20125;-36
2023/09/04 01:57:16;;;;;;;7.72;4.93;;;17.60;99.90;;;;;;5026458;28;20045;-39
2023/09/04 01:59:41;;;;;;;6.32;4.10;;;17.40;99.90;;;;;;5027393;28;20041;-36
2023/09/04 02:02:07;;;;;;;6.43;4.22;;;17.70;99.90;;;;;;5021448;28;20369;-41
2023/09/04 02:04:34;;;;;;;6.50;4.18;;;17.60;99.90;;;;;;5020029;28;20033;-37
2023/09/04 02:07:00;;;;;;;6.55;3.72;;;17.50;99.90;;;;;;5022912;28;20570;-38
2023/09/04 02:09:26;;;;;;;5.97;3.63;;;17.80;99.90;;;;;;5025250;28;20088;-40
2023/09/04 02:11:52;;;;;;;6.20;4.18;;;17.80;99.90;;;;;;5018428;28;20053;-36
2023/09/04 02:14:17;;;;;;;6.35;3.83;;;18.00;99.90;;;;;;5018696;28;20128;-39
2023/09/04 02:16:43;;;;;;;6.20;4.13;;;18.50;99.90;;;;;;5029194;28;20033;-36
2023/09/04 02:19:09;;;;;;;6.53;4.18;;;18.20;99.90;;;;;;5029678;28;20506;-39
2023/09/04 02:21:35;;;;;;;6.50;4.55;;;18.20;99.90;;;;;;5029201;28;20380;-39
2023/09/04 02:24:01;;;;;;;7.80;5.07;;;17.80;99.90;;;;;;5024111;28;20037;-37
2023/09/04 02:26:27;;;;;;;7.95;4.82;;;17.60;99.90;;;;;;5019328;28;20038;-40
2023/09/04 02:28:53;;;;;;;7.13;5.25;;;18.80;99.90;;;;;;5016897;28;20038;-36
2023/09/04 02:31:18;;;;;;;6.85;4.70;;;17.40;99.90;;;;;;5024665;28;20068;-36
2023/09/04 02:33:44;;;;;;;7.05;4.90;;;18.50;99.90;;;;;;5028949;28;20046;-37
2023/09/04 02:36:10;;;;;;;7.25;5.10;;;17.80;99.90;;;;;;5028223;28;20539;-36
2023/09/04 02:38:36;;;;;;;8.05;4.78;;;17.60;99.90;;;;;;5014174;28;20116;-40
2023/09/04 02:41:01;;;;;;;7.82;5.15;;;17.40;99.90;;;;;;5018872;28;20121;-36
2023/09/04 02:43:27;;;;;;;7.30;5.28;;;17.70;99.90;;;;;;5023053;28;20341;-39
2023/09/04 02:45:53;;;;;;;7.25;5.00;;;18.30;99.90;;;;;;5021747;28;20120;-38
2023/09/04 02:48:18;;;;;;;7.60;5.70;;;17.70;99.90;;;;;;5022792;28;20415;-39
2023/09/04 02:50:44;;;;;;;7.95;5.57;;;18.00;99.90;;;;;;5029450;28;20044;-39
2023/09/04 02:53:10;;;;;;;8.13;6.15;;;17.90;99.90;;;;;;5029192;28;20029;-37
2023/09/04 02:55:35;;;;;;;8.38;5.72;;;17.50;99.90;;;;;;5016409;28;20128;-37
2023/09/04 02:58:01;;;;;;;8.70;6.10;;;18.20;99.90;;;;;;5029102;28;20037;-39
2023/09/04 03:00:27;;;;;;;7.32;5.68;;;18.00;99.90;;;;;;5020607;28;20088;-41
2023/09/04 03:02:53;;;;;;;8.15;5.50;;;17.40;99.90;;;;;;5029150;28;20033;-37
2023/09/04 03:05:18;;;;;;;7.93;5.55;;;17.60;99.90;;;;;;5029216;28;20038;-36
2023/09/04 03:07:44;;;;;;;7.75;6.10;;;17.70;99.90;;;;;;5020316;28;20492;-36
2023/09/04 03:10:10;;;;;;;8.13;6.30;;;17.30;99.90;;;;;;5020860;28;20037;-36
2023/09/04 03:12:36;;;;;;;7.32;5.50;;;17.00;99.90;;;;;;5028703;28;20042;-40
2023/09/04 03:15:06;;;;;;;9.05;6.47;;;17.50;99.90;;;;;;5029195;28;20107;-39
2023/09/04 03:17:33;;;;;;;8.05;6.10;;;18.10;99.90;;;;;;5026465;28;20042;-38
2023/09/04 03:19:59;;;;;;;7.43;5.45;;;18.10;99.90;;;;;;5019392;28;20053;-37
2023/09/04 03:22:26;;;;;;;7.95;5.85;;;18.30;99.90;;;;;;5018949;28;20148;-38
2023/09/04 03:24:53;;;;;;;8.82;6.28;;;17.10;99.90;;;;;;5032201;28;20560;-38
2023/09/04 03:27:19;;;;;;;7.43;5.80;;;17.30;99.90;;;;;;5027066;28;20034;-39
2023/09/04 03:29:45;;;;;;;8.65;5.85;;;17.70;99.90;;;;;;5023963;28;20171;-38
2023/09/04 03:32:10;;;;;;;8.35;6.40;;;17.90;99.90;;;;;;5031889;28;20128;-39
2023/09/04 03:34:38;;;;;;;7.70;5.82;;;17.50;99.90;;;;;;5032478;28;20250;-36
2023/09/04 03:37:04;;;;;;;8.07;6.10;;;17.50;99.90;;;;;;5032266;28;20522;-36
2023/09/04 03:39:35;;;;;;;8.70;6.00;;;17.70;99.90;;;;;;5032165;28;20029;-41
2023/09/04 03:42:00;;;;;;;8.45;6.32;;;17.80;99.90;;;;;;5028373;28;20048;-36
2023/09/04 03:44:26;;;;;;;7.10;5.05;;;17.50;99.90;;;;;;5029108;28;20033;-37
2023/09/04 03:46:52;;;;;;;7.35;5.10;;;17.70;99.90;;;;;;5022084;28;20041;-38
2023/09/04 03:49:17;;;;;;;7.32;5.60;;;17.70;99.90;;;;;;5024099;28;20136;-37
2023/09/04 03:51:43;;;;;;;7.50;4.82;;;17.60;99.90;;;;;;5030569;28;20053;-38
2023/09/04 03:54:09;;;;;;;7.05;4.85;;;17.40;99.90;;;;;;5025645;28;20060;-35
2023/09/04 03:56:35;;;;;;;8.05;5.00;;;17.70;99.90;;;;;;5031613;28;20037;-38
2023/09/04 03:59:01;;;;;;;7.57;4.65;;;17.50;99.90;;;;;;5027248;28;20044;-38
2023/09/04 04:01:28;;;;;;;6.93;4.35;;;17.70;99.90;;;;;;5017239;28;20567;-38
2023/09/04 04:03:54;;;;;;;6.30;4.07;;;17.30;99.90;;;;;;5023375;28;20043;-36
2023/09/04 04:06:22;;;;;;;6.22;3.70;;;17.70;99.90;;;;;;5025982;28;20037;-35
2023/09/04 04:08:54;;;;;;;5.18;2.95;;;;;;;;;;5031530;28;20296;-36
2023/09/04 04:11:20;;;;;;;5.55;2.95;;;17.70;99.90;;;;;;5024310;28;20053;-37
2023/09/04 04:13:46;;;;;;;5.75;3.22;;;17.50;99.90;;;;;;5030857;28;20047;-38
2023/09/04 04:16:12;;;;;;;5.20;2.90;;;17.40;99.90;;;;;;5031554;28;20128;-36
2023/09/04 04:18:38;;;;;;;5.78;2.63;;;17.60;99.90;;;;;;5022619;28;20478;-36
2023/09/04 04:21:04;;;;;;;4.95;2.45;;;17.40;99.90;;;;;;5020394;28;20030;-39
2023/09/04 04:23:30;;;;;;;6.30;2.92;;;17.40;99.90;;;;;;5019119;28;20038;-37
2023/09/04 04:25:56;;;;;;;5.00;2.65;;;17.00;99.90;;;;;;5028365;28;20558;-36
2023/09/04 04:28:22;;;;;;;5.18;2.80;;;17.50;99.90;;;;;;5019630;28;20037;-39
2023/09/04 04:30:48;;;;;;;5.40;2.80;;;17.20;99.90;;;;;;5021487;28;20037;-38
2023/09/04 04:33:13;;;;;;;6.57;3.10;;;17.20;99.90;;;;;;5026132;28;20507;-36
2023/09/04 04:35:40;;;;;;;5.25;2.88;;;17.20;99.90;;;;;;5028010;28;20041;-36
2023/09/04 04:38:06;;;;;;;5.47;2.80;;;17.30;99.90;;;;;;5023847;28;20034;-36
2023/09/04 04:40:32;;;;;;;5.15;2.90;;;17.30;99.90;;;;;;5025236;28;20033;-40
2023/09/04 04:42:58;;;;;;;5.72;2.50;;;17.30;99.90;;;;;;5021663;28;20038;-37
2023/09/04 04:45:24;;;;;;;5.15;2.65;;;17.10;99.90;;;;;;5031240;28;20040;-36
2023/09/04 04:47:50;;;;;;;5.05;2.67;;;17.00;99.90;;;;;;5017489;28;20038;-36
2023/09/04 04:50:16;;;;;;;4.88;2.70;;;17.30;99.90;;;;;;5018313;28;20480;-38
2023/09/04 04:52:41;;;;;;;4.75;2.50;;;17.10;99.90;;;;;;5028708;28;20033;-37
2023/09/04 04:55:07;;;;;;;5.22;2.88;;;17.20;99.90;;;;;;5031012;28;20036;-40
2023/09/04 04:57:33;;;;;;;5.32;2.83;;;17.30;99.90;;;;;;5025363;28;20136;-38
2023/09/04 04:59:59;;;;;;;5.07;2.80;;;17.10;99.90;;;;;;5021337;28;20121;-36
2023/09/04 05:02:25;;;;;;;4.68;2.55;;;17.30;99.90;;;;;;5029242;28;20029;-35
2023/09/04 05:04:51;;;;;;;5.32;3.03;;;17.20;99.90;;;;;;5020895;28;20089;-36
2023/09/04 05:07:17;;;;;;;5.57;3.35;;;17.20;99.90;;;;;;5024279;28;20033;-37
2023/09/04 05:09:42;;;;;;;5.65;3.33;;;17.10;99.90;;;;;;5028904;28;20107;-37
2023/09/04 05:12:08;;;;;;;6.53;3.30;;;17.40;99.90;;;;;;5030140;28;20541;-42
2023/09/04 05:14:34;;;;;;;6.65;3.80;;;17.30;99.90;;;;;;5025817;28;20073;-38
2023/09/04 05:17:00;;;;;;;7.03;4.07;;;;;;;;;;5030276;28;20523;-37
2023/09/04 05:19:28;;;;;;;6.45;4.20;;;17.00;99.90;;;;;;5030017;28;20500;-36
2023/09/04 05:21:54;;;;;;;6.43;4.25;;;17.40;99.90;;;;;;5028854;28;20067;-36
2023/09/04 05:24:20;;;;;;;6.20;4.32;;;17.00;99.90;;;;;;5025327;28;20495;-36
2023/09/04 05:26:45;;;;;;;6.43;3.58;;;17.10;99.90;;;;;;5029558;28;20048;-38
2023/09/04 05:29:11;;;;;;;5.93;3.92;;;17.00;99.90;;;;;;5026311;28;20034;-40
2023/09/04 05:31:37;;;;;;;7.07;3.53;;;16.90;99.90;;;;;;5026285;28;20045;-38
2023/09/04 05:34:02;;;;;;;6.15;3.60;;;17.30;99.90;;;;;;5020635;28;20084;-36
2023/09/04 05:36:28;;;;;;;5.80;3.45;;;16.90;99.90;;;;;;5015209;28;20037;-36
2023/09/04 05:38:54;;;;;;;6.05;3.60;;;17.40;99.90;;;;;;5027612;28;20041;-38
2023/09/04 05:41:19;;;;;;;9.43;3.40;;;17.20;99.90;;;;;;5027966;28;20045;-37
2023/09/04 05:43:45;;;;;;;6.45;3.70;;;17.60;99.90;;;;;;5019253;28;20041;-35
2023/09/04 05:46:10;;;;;;;7.75;4.60;;;17.00;99.90;;;;;;5028240;28;20029;-39
2023/09/04 05:48:36;;;;;;;8.77;4.15;;;16.80;99.90;;;;;;5028386;28;20049;-39
2023/09/04 05:51:02;;;;;;;11.50;4.38;;;17.30;99.90;;;;;;5029609;28;20496;-36
2023/09/04 05:53:29;;;;;;;16.60;6.05;;;17.20;99.90;;;;;;5029655;28;20412;-36
2023/09/04 05:56:11;;;;;;;12.52;6.65;;;17.20;99.90;;;;;;5027789;28;20056;-38
2023/09/04 05:58:52;;;;;;;14.82;7.20;;;17.00;99.90;;;;;;5029689;28;20064;-40
2023/09/04 06:01:19;;;;;;;13.60;6.82;;;17.60;99.90;;;;;;5028701;28;20044;-38
2023/09/04 06:03:45;;;;;;;15.60;6.63;;;17.30;99.90;;;;;;5028822;28;20045;-38
2023/09/04 06:06:11;;;;;;;13.88;5.78;;;17.40;99.90;;;;;;5029594;28;20046;-41
2023/09/04 06:08:37;;;;;;;10.07;5.13;;;18.00;99.90;;;;;;5029838;28;20044;-39
2023/09/04 06:11:04;;;;;;;8.10;5.35;;;17.10;99.90;;;;;;5019973;28;20049;-39
2023/09/04 06:13:30;;;;;;;10.02;5.80;;;17.40;99.90;;;;;;5028831;28;20408;-38
2023/09/04 06:15:56;;;;;;;9.10;5.25;;;17.00;99.90;;;;;;5029311;28;20044;-39
2023/09/04 06:18:23;;;;;;;9.38;5.32;;;17.20;99.90;;;;;;5027335;28;20049;-40
2023/09/04 06:20:50;;;;;;;11.43;5.30;;;17.80;99.90;;;;;;5028415;28;20038;-39
2023/09/04 06:23:16;;;;;;;12.68;5.43;;;;;;;;;;5028806;28;20095;-37
2023/09/04 06:25:42;;;;;;;13.38;5.40;;;17.10;99.90;;;;;;5027683;28;20056;-39
2023/09/04 06:28:12;;;;;;;17.90;6.50;;;17.30;1.00;;;;;;5027336;28;20049;-38
2023/09/04 06:30:38;;;;;;;19.45;7.03;;;17.70;1.00;;;;;;5028546;28;20462;-38
2023/09/04 06:33:04;;;;;;;15.48;6.38;;;18.10;1.00;;;;;;5028755;28;20128;-36
2023/09/04 06:35:31;;;;;;;17.95;6.18;;;18.30;1.00;;;;;;5027049;28;20059;-36
2023/09/04 06:37:57;;;;;;;17.73;5.57;;;17.20;1.00;;;;;;5028686;28;20109;-38
2023/09/04 06:40:23;;;;;;;12.65;5.32;;;18.50;1.00;;;;;;5027739;28;20033;-39
2023/09/04 06:42:49;;;;;;;16.20;4.93;;;18.60;1.00;;;;;;5029021;28;20044;-36
2023/09/04 06:45:15;;;;;;;12.85;4.40;;;18.40;1.00;;;;;;5029263;28;20030;-39
2023/09/04 06:47:41;;;;;;;13.55;4.60;;;18.10;1.00;;;;;;5029201;28;20099;-36
2023/09/04 06:50:08;;;;;;;11.55;4.70;;;18.50;1.00;;;;;;5022737;28;20411;-40
2023/09/04 06:52:37;;;;;;;12.77;4.70;;;18.40;1.00;;;;;;5024444;28;20151;-39
2023/09/04 06:55:03;;;;;;;8.35;3.70;;;18.70;1.00;;;;;;5007155;28;20037;-42
2023/09/04 06:57:29;;;;;;;11.05;3.92;;;17.90;1.00;;;;;;4942881;28;20033;-40
2023/09/04 06:59:56;;;;;;;12.40;4.35;;;18.10;1.00;;;;;;5021843;28;20045;-39
2023/09/04 07:02:22;;;;;;;9.13;3.65;;;18.40;1.00;;;;;;5012807;28;20902;-37
2023/09/04 07:04:47;;;;;;;10.00;3.70;;;18.50;1.00;;;;;;5021534;28;20068;-39
2023/09/04 07:07:13;;;;;;;10.32;3.70;;;19.20;1.00;;;;;;5021130;28;20082;-41
2023/09/04 07:09:38;;;;;;;9.02;3.30;;;18.40;1.00;;;;;;5014328;28;20040;-38
2023/09/04 07:12:05;;;;;;;7.95;3.20;;;18.70;1.00;;;;;;5013072;28;20048;-40
2023/09/04 07:14:32;;;;;;;12.00;4.18;;;18.80;1.00;;;;;;5016932;28;20533;-42
2023/09/04 07:16:58;;;;;;;8.45;3.28;;;18.80;1.00;;;;;;5020410;28;20042;-41
2023/09/04 07:19:23;;;;;;;8.75;3.45;;;19.00;1.00;;;;;;5022246;28;20365;-40
2023/09/04 07:21:49;;;;;;;7.80;3.08;;;18.70;1.00;;;;;;5018560;28;20279;-40
2023/09/04 07:24:15;;;;;;;7.80;3.40;;;18.90;1.00;;;;;;5017849;28;20049;-37
2023/09/04 07:26:40;;;;;;;7.85;2.88;;;19.00;1.00;;;;;;5022886;28;20033;-39
2023/09/04 07:29:06;;;;;;;7.88;2.85;;;18.90;1.00;;;;;;5021115;28;20037;-39
2023/09/04 07:31:32;;;;;;;7.68;3.10;;;18.80;1.00;;;;;;5023323;28;20056;-40
2023/09/04 07:33:58;;;;;;;8.98;3.30;;;19.20;1.00;;;;;;5020865;28;20128;-41
2023/09/04 07:36:24;;;;;;;9.32;3.17;;;18.90;1.00;;;;;;5021825;28;20688;-40
2023/09/04 07:38:50;;;;;;;10.10;3.20;;;19.20;1.00;;;;;;5021084;28;20076;-38
2023/09/04 07:41:17;;;;;;;7.43;2.50;;;18.70;1.00;;;;;;5020762;28;20068;-39
2023/09/04 07:43:42;;;;;;;7.43;2.80;;;18.90;1.00;;;;;;5020499;28;20034;-39
2023/09/04 07:46:09;;;;;;;7.85;2.97;;;19.00;1.00;;;;;;5021644;28;20091;-41
2023/09/04 07:48:35;;;;;;;7.15;2.83;;;19.00;1.00;;;;;;5017850;28;20041;-40
2023/09/04 07:51:04;;;;;;;7.50;2.90;;;19.00;1.00;;;;;;5019875;28;20037;-41
2023/09/04 07:53:29;;;;;;;6.43;2.80;;;19.20;1.00;;;;;;5020616;28;20029;-40
2023/09/04 07:55:55;;;;;;;8.10;2.35;;;18.80;1.00;;;;;;5019921;28;20506;-41
2023/09/04 07:58:21;;;;;;;6.88;2.47;;;19.70;1.00;;;;;;5017886;28;20061;-38
2023/09/04 08:00:49;;;;;;;5.03;2.15;;;19.20;1.00;;;;;;5021948;28;20037;-39
2023/09/04 08:03:15;;;;;;;5.75;2.30;;;18.90;1.00;;;;;;5021320;28;20120;-38
2023/09/04 08:05:41;;;;;;;5.78;2.38;;;19.40;1.00;;;;;;5022005;28;20069;-39
2023/09/04 08:08:10;;;;;;;5.28;2.10;;;19.20;1.00;;;;;;5020560;28;20065;-38
2023/09/04 08:10:42;;;;;;;7.25;2.30;;;19.40;1.00;;;;;;5022307;28;20509;-41
2023/09/04 08:13:13;;;;;;;6.45;2.33;;;19.30;1.00;;;;;;5016489;28;20048;-39
2023/09/04 08:15:39;;;;;;;5.55;2.17;;;19.40;1.00;;;;;;5015551;28;20029;-41
2023/09/04 08:18:06;;;;;;;5.65;2.03;;;19.10;1.00;;;;;;5022455;28;20037;-41
2023/09/04 08:20:32;;;;;;;5.53;2.25;;;19.20;1.00;;;;;;5024929;28;20038;-39
2023/09/04 08:22:57;;;;;;;6.05;2.45;;;19.10;1.00;;;;;;5028252;28;20058;-41
2023/09/04 08:25:23;;;;;;;5.82;2.55;;;19.50;1.00;;;;;;5025200;28;20090;-40
2023/09/04 08:27:48;;;;;;;5.15;2.13;;;19.50;1.00;;;;;;5029298;28;20502;-39
2023/09/04 08:30:14;;;;;;;4.82;2.10;;;19.50;1.00;;;;;;5027062;28;20120;-40
2023/09/04 08:32:40;;;;;;;6.22;2.40;;;19.40;1.00;;;;;;5025942;28;20041;-40
2023/09/04 08:35:06;;;;;;;4.90;2.13;;;19.30;1.00;;;;;;5029669;28;20479;-41
2023/09/04 08:37:31;;;;;;;5.38;2.30;;;20.00;1.00;;;;;;5029753;28;20100;-41
2023/09/04 08:39:57;;;;;;;5.97;2.60;;;19.60;1.00;;;;;;5027306;28;20037;-40
2023/09/04 08:42:23;;;;;;;5.63;2.15;;;19.50;1.00;;;;;;5030157;28;20049;-39
2023/09/04 08:44:52;;;;;;;6.15;2.08;;;19.40;1.00;;;;;;5030777;28;20415;-40
2023/09/04 08:47:21;;;;;;;5.90;2.05;;;19.50;1.00;;;;;;5030407;28;20033;-39
2023/09/04 08:49:47;;;;;;;4.55;2.17;;;19.50;1.00;;;;;;5025315;28;20029;-39
2023/09/04 08:52:13;;;;;;;5.03;2.30;;;19.20;1.00;;;;;;5027913;28;20376;-39
2023/09/04 08:54:40;;;;;;;4.93;1.98;;;19.30;1.00;;;;;;5024861;28;20124;-39
2023/09/04 08:57:08;;;;;;;5.15;2.55;;;19.50;1.00;;;;;;5030132;28;20041;-40
2023/09/04 08:59:34;;;;;;;6.35;2.13;;;19.50;1.00;;;;;;5027447;28;20080;-40
2023/09/04 09:02:05;;;;;;;5.22;1.90;;;19.40;1.00;;;;;;5029724;28;20061;-41
2023/09/04 09:04:32;;;;;;;4.60;2.00;;;19.50;1.00;;;;;;5025317;28;20096;-39
2023/09/04 09:06:59;;;;;;;4.60;1.98;;;19.80;1.00;;;;;;5030350;28;20129;-40
2023/09/04 09:09:27;;;;;;;4.75;1.98;;;19.60;1.00;;;;;;5029172;28;20037;-39
2023/09/04 09:11:55;;;;;;;4.90;2.05;;;20.40;1.00;;;;;;5030370;28;20041;-39
2023/09/04 09:14:26;;;;;;;5.80;2.28;;;19.60;1.00;;;;;;5028890;28;20521;-40
2023/09/04 09:17:05;;;;;;;5.53;2.30;;;19.30;1.00;;;;;;5029080;28;20460;-40
2023/09/04 09:19:35;;;;;;;5.13;1.92;;;19.90;1.00;;;;;;5025478;28;20037;-39
2023/09/04 09:22:14;;;;;;;4.82;2.20;;;19.80;1.00;;;;;;5029984;28;20125;-40
2023/09/04 09:24:56;;;;;;;5.13;1.90;;;19.60;1.00;;;;;;5023121;28;20034;-40
2023/09/04 09:27:23;;;;;;;4.75;1.88;;;19.90;1.00;;;;;;5027969;28;20132;-39
2023/09/04 09:29:50;;;;;;;4.75;2.20;;;20.00;1.00;;;;;;5022451;28;20045;-39
2023/09/04 09:32:17;;;;;;;6.25;2.10;;;19.70;1.00;;;;;;5024941;28;20069;-41
2023/09/04 09:34:51;;;;;;;4.88;1.83;;;20.40;1.00;;;;;;5016927;28;20037;-39
2023/09/04 09:37:17;;;;;;;6.13;1.92;;;19.70;1.00;;;;;;5026540;28;20478;-40
2023/09/04 09:39:43;;;;;;;5.32;2.28;;;19.60;1.00;;;;;;5029916;28;20025;-41
2023/09/04 09:42:09;;;;;;;5.45;2.30;;;19.50;93.70;;;;;;5025299;28;20510;-41
2023/09/04 09:44:35;;;;;;;4.60;2.10;;;21.00;99.90;;;;;;5028541;28;20160;-39
2023/09/04 09:47:00;;;;;;;4.32;1.77;;;19.90;99.90;;;;;;5029937;28;20034;-40
2023/09/04 09:49:29;;;;;;;4.78;1.88;;;19.40;99.90;;;;;;5029623;28;20044;-39
2023/09/04 09:51:55;;;;;;;4.97;2.05;;;19.40;99.90;;;;;;5028002;28;20514;-37
2023/09/04 09:54:53;;;;;;;4.60;2.00;;;19.50;99.90;;;;;;5029306;28;20037;-40
2023/09/04 09:57:20;;;;;;;4.82;2.08;;;20.10;99.90;;;;;;4995795;28;20049;-40
2023/09/04 09:59:50;;;;;;;4.50;2.05;;;20.50;99.90;;;;;;5028104;28;20055;-40
2023/09/04 10:02:24;;;;;;;4.47;1.83;;;20.60;99.90;;;;;;5029327;28;20415;-39
2023/09/04 10:04:50;;;;;;;;;;;20.80;99.90;;;;;;5026400;28;20306;-39
2023/09/04 10:07:20;;;;;;;5.18;1.92;;;20.30;99.90;;;;;;5028096;28;19924;-38
2023/09/04 10:09:51;;;;;;;5.88;1.90;;;19.70;99.90;;;;;;5028398;28;20041;-38
2023/09/04 10:12:48;;;;;;;5.13;2.13;;;20.70;99.90;;;;;;5029203;28;20037;-42
2023/09/04 10:15:19;;;;;;;5.47;1.80;;;19.90;99.90;;;;;;5025088;28;20056;-39
2023/09/04 10:18:11;;;;;;;4.05;1.60;;;20.50;99.90;;;;;;5029377;28;20049;-39
2023/09/04 10:20:39;;;;;;;5.28;2.00;;;21.10;99.90;;;;;;5026207;28;20470;-41
2023/09/04 10:23:10;;;;;;;4.60;1.80;;;19.80;99.90;;;;;;5028894;28;20040;-40
2023/09/04 10:25:41;;;;;;;4.32;1.73;;;19.60;99.90;;;;;;5028541;28;20517;-41
2023/09/04 10:28:11;;;;;;;4.82;1.83;;;20.80;99.90;;;;;;5031997;28;20049;-40
2023/09/04 10:30:41;;;;;;;5.22;2.40;;;20.60;99.90;;;;;;5032125;28;20566;-40
2023/09/04 10:33:07;;;;;;;4.28;1.67;;;20.80;99.90;;;;;;5033424;28;20037;-42
2023/09/04 10:35:33;;;;;;;3.80;1.60;;;20.80;99.90;;;;;;5031814;28;20129;-41
2023/09/04 10:37:59;;;;;;;4.75;1.98;;;20.70;99.90;;;;;;5033971;28;20128;-40
2023/09/04 10:40:28;;;;;;;4.60;1.90;;;21.00;99.90;;;;;;5030563;28;20046;-40
2023/09/04 10:42:56;;;;;;;5.10;1.90;;;19.90;99.90;;;;;;5031395;28;20345;-40
2023/09/04 10:45:22;;;;;;;6.68;2.47;;;22.00;99.90;;;;;;5033195;28;20053;-40
2023/09/04 10:47:52;;;;;;;5.03;2.00;;;20.40;99.90;;;;;;5026867;28;20033;-39
2023/09/04 10:50:30;;;;;;;4.78;1.88;;;19.90;99.90;;;;;;5032955;28;20045;-39
2023/09/04 10:52:57;;;;;;;5.25;2.00;;;20.50;99.90;;;;;;5027292;28;20088;-39
2023/09/04 10:55:24;;;;;;;4.75;1.95;;;19.90;99.90;;;;;;5032535;28;20285;-39
2023/09/04 10:58:08;;;;;;;4.28;1.80;;;20.90;99.90;;;;;;5033139;28;20530;-42
2023/09/04 11:00:35;;;;;;;5.00;1.90;;;20.00;99.90;;;;;;5031388;28;20038;-42
2023/09/04 11:03:21;;;;;;;4.13;1.67;;;20.00;99.90;;;;;;5032220;28;20094;-39
2023/09/04 11:06:02;;;;;;;4.20;1.70;;;20.00;99.90;;;;;;5025769;28;20050;-39
2023/09/04 11:08:29;;;;;;;4.53;1.98;;;20.00;99.90;;;;;;5030931;28;20487;-41
2023/09/04 11:11:06;;;;;;;5.03;1.85;;;19.90;99.90;;;;;;5033082;28;20038;-39
2023/09/04 11:13:40;;;;;;;4.60;1.90;;;19.80;99.90;;;;;;5031303;28;20038;-39
2023/09/04 11:16:09;;;;;;;4.60;1.73;;;20.60;99.90;;;;;;5032513;28;20041;-39
2023/09/04 11:18:36;;;;;;;3.90;1.50;;;20.10;99.90;;;;;;5030674;28;20045;-39
2023/09/04 11:21:03;;;;;;;5.25;1.83;;;19.80;99.90;;;;;;5031511;28;20040;-41
2023/09/04 11:23:29;;;;;;;3.83;1.60;;;20.00;99.90;;;;;;5031912;28;20081;-41
2023/09/04 11:25:55;;;;;;;5.95;1.80;;;20.80;99.90;;;;;;5032478;28;20078;-41
2023/09/04 11:28:26;;;;;;;4.03;1.58;;;20.90;99.90;;;;;;5032241;28;20045;-40
2023/09/04 11:30:54;;;;;;;4.10;1.70;;;19.90;99.90;;;;;;5025767;28;20060;-41
2023/09/04 11:33:22;;;;;;;3.88;1.50;;;20.80;99.90;;;;;;5031839;28;20069;-42
2023/09/04 11:36:01;;;;;;;4.45;1.77;;;19.80;99.90;;;;;;5032364;28;20046;-39
2023/09/04 11:38:29;;;;;;;4.85;1.90;;;20.10;99.90;;;;;;5031353;28;20049;-41
2023/09/04 11:40:55;;;;;;;4.43;1.83;;;20.30;99.90;;;;;;5032047;28;20384;-41
2023/09/04 11:43:23;;;;;;;6.00;1.70;;;21.10;99.90;;;;;;5020883;28;20044;-39
2023/09/04 11:45:55;;;;;;;4.00;1.90;;;19.80;99.90;;;;;;5032219;28;20048;-42
2023/09/04 11:48:24;;;;;;;4.20;1.77;;;20.40;99.90;;;;;;5032107;28;20046;-41
2023/09/04 11:50:51;;;;;;;4.10;1.50;;;21.00;99.90;;;;;;5028868;28;20033;-40
2023/09/04 11:53:17;;;;;;;4.68;1.58;;;20.70;99.90;;;;;;5030048;28;20041;-41
2023/09/04 11:55:43;;;;;;;4.10;1.88;;;21.10;99.90;;;;;;5026837;28;20073;-41
2023/09/04 11:58:08;;;;;;;4.00;1.88;;;20.40;99.90;;;;;;5024990;28;20065;-39
2023/09/04 12:00:34;;;;;;;3.85;1.45;;;20.30;99.90;;;;;;5030241;28;20491;-39
2023/09/04 12:03:00;;;;;;;4.80;1.90;;;20.80;99.90;;;;;;5030207;28;20072;-40
2023/09/04 12:05:26;;;;;;;4.53;2.00;;;20.70;99.90;;;;;;5031434;28;20120;-40
2023/09/04 12:07:53;;;;;;;4.22;1.70;;;20.30;99.90;;;;;;5031357;28;20033;-41
2023/09/04 12:10:18;;;;;;;4.00;1.70;;;20.20;99.90;;;;;;5030034;28;20045;-39
2023/09/04 12:12:44;;;;;;;4.68;1.77;;;21.10;99.90;;;;;;5031359;28;20037;-39
2023/09/04 12:15:10;;;;;;;3.60;1.45;;;20.10;99.90;;;;;;5031564;28;20096;-40
2023/09/04 12:17:36;;;;;;;4.63;1.90;;;21.40;99.90;;;;;;5030502;28;20471;-39
2023/09/04 12:20:13;;;;;;;4.18;1.83;;;20.40;99.90;;;;;;5023826;28;20041;-40
2023/09/04 12:22:42;;;;;;;4.00;1.60;;;20.10;99.90;;;;;;5026545;28;20041;-42
2023/09/04 12:25:08;;;;;;;4.43;1.70;;;20.20;99.90;;;;;;5026394;28;20127;-39
2023/09/04 12:27:35;;;;;;;3.95;1.60;;;20.40;99.90;;;;;;5027528;28;20037;-39
2023/09/04 12:30:01;;;;;;;5.32;1.80;;;21.50;99.90;;;;;;5020372;28;20415;-40
2023/09/04 12:32:27;;;;;;;4.65;1.60;;;20.10;99.90;;;;;;5026113;28;20040;-41
2023/09/04 12:35:08;;;;;;;4.28;1.67;;;20.50;99.90;;;;;;5022474;28;20045;-40
2023/09/04 12:37:36;;;;;;;4.68;1.70;;;20.40;99.90;;;;;;5026213;28;20052;-41
2023/09/04 12:40:04;;;;;;;4.10;1.63;;;20.80;99.90;;;;;;5022745;28;20080;-40
2023/09/04 12:42:29;;;;;;;4.57;1.92;;;20.30;99.90;;;;;;5026570;28;20476;-41
2023/09/04 12:44:55;;;;;;;3.85;1.63;;;20.40;99.90;;;;;;5028794;28;20025;-40
2023/09/04 12:47:21;;;;;;;3.72;1.50;;;21.30;99.90;;;;;;5025224;28;20048;-40
2023/09/04 12:49:50;;;;;;;4.47;2.08;;;20.40;99.90;;;;;;5028177;28;20041;-39
2023/09/04 12:52:16;;;;;;;5.00;1.92;;;21.10;99.90;;;;;;5028689;28;20437;-39